Time;durP1;ratioP1;P1;durP2;ratioP2;P2;SDS_P1;SDS_P2;PMS_P1;PMS_P2;Temp;Humidity;BMP_temperature;BMP_pressure;BME280_temperature;BME280_humidity;BME280_pressure;Samples;Min_cycle;Max_cycle;Signal;HPM_P1;HPM_P2
2022/09/14 00:01:10;;;;;;;1.40;1.00;;;23.30;47.60;;;;;;5048534;28;20117;-10
2022/09/14 00:03:36;;;;;;;0.80;0.70;;;23.30;47.60;;;;;;5048552;28;20136;-10
2022/09/14 00:06:14;;;;;;;1.60;0.85;;;23.30;47.60;;;;;;5048499;28;20137;-10
2022/09/14 00:08:40;;;;;;;0.88;0.80;;;23.30;47.60;;;;;;5049012;28;20497;-10
2022/09/14 00:11:12;;;;;;;0.95;0.80;;;23.30;47.70;;;;;;5048475;28;20049;-10
2022/09/14 00:13:40;;;;;;;0.85;0.85;;;23.30;47.60;;;;;;5048476;28;20130;-10
2022/09/14 00:16:16;;;;;;;0.73;0.70;;;23.30;47.60;;;;;;5048043;28;20422;-11
2022/09/14 00:18:42;;;;;;;0.80;0.80;;;23.30;47.70;;;;;;5051469;28;20057;-10
2022/09/14 00:21:10;;;;;;;0.93;0.80;;;23.30;47.60;;;;;;5051608;28;20045;-10
2022/09/14 00:23:38;;;;;;;0.75;0.55;;;23.30;47.60;;;;;;5051802;28;20049;-10
2022/09/14 00:26:10;;;;;;;1.00;0.80;;;23.30;47.60;;;;;;5051475;28;20049;-10
2022/09/14 00:28:43;;;;;;;0.70;0.70;;;23.30;47.60;;;;;;5051312;28;20095;-10
2022/09/14 00:31:10;;;;;;;0.85;0.80;;;23.30;47.60;;;;;;5051352;28;20048;-10
2022/09/14 00:33:37;;;;;;;1.05;0.73;;;23.30;47.60;;;;;;5051760;28;20049;-10
2022/09/14 00:36:14;;;;;;;0.93;0.80;;;23.30;47.60;;;;;;5051291;28;20494;-10
2022/09/14 00:38:40;;;;;;;0.70;0.70;;;23.30;47.60;;;;;;5051282;28;20056;-10
2022/09/14 00:41:10;;;;;;;1.17;0.85;;;23.30;47.60;;;;;;5051146;28;20052;-10
2022/09/14 00:43:57;;;;;;;2.22;0.80;;;23.30;47.60;;;;;;5051276;28;20064;-10
2022/09/14 00:46:24;;;;;;;0.82;0.80;;;23.30;47.60;;;;;;5051335;28;20044;-10
2022/09/14 00:48:50;;;;;;;0.95;0.80;;;23.30;47.60;;;;;;5050870;28;20053;-10
2022/09/14 00:51:16;;;;;;;0.90;0.80;;;23.30;47.60;;;;;;5051150;28;20072;-10
2022/09/14 00:53:42;;;;;;;0.65;0.65;;;23.30;47.60;;;;;;5051242;28;20052;-10
2022/09/14 00:56:08;;;;;;;1.42;1.20;;;23.30;47.60;;;;;;5051179;28;20085;-10
2022/09/14 00:58:34;;;;;;;0.88;0.75;;;23.30;47.60;;;;;;5050788;28;20072;-10
2022/09/14 01:01:01;;;;;;;0.98;0.82;;;23.30;47.60;;;;;;5050992;28;20094;-10
2022/09/14 01:03:27;;;;;;;0.95;0.85;;;23.30;47.50;;;;;;5051215;28;20087;-10
2022/09/14 01:06:25;;;;;;;0.93;0.70;;;23.30;47.60;;;;;;5050857;28;20049;-10
2022/09/14 01:09:18;;;;;;;0.95;0.77;;;23.30;47.60;;;;;;5051170;28;20072;-10
2022/09/14 01:12:10;;;;;;;0.70;0.70;;;23.30;47.60;;;;;;5051216;28;20049;-10
2022/09/14 01:14:57;;;;;;;1.15;0.70;;;23.30;47.60;;;;;;5050676;28;20061;-11
2022/09/14 01:17:55;;;;;;;1.25;1.00;;;23.30;47.60;;;;;;5051112;28;20045;-10
2022/09/14 01:20:39;;;;;;;1.05;0.70;;;23.30;47.60;;;;;;5050840;28;20415;-10
2022/09/14 01:23:16;;;;;;;0.80;0.70;;;23.30;47.60;;;;;;5051075;28;20059;-10
2022/09/14 01:26:28;;;;;;;0.90;0.70;;;23.30;47.60;;;;;;5050893;28;20486;-10
2022/09/14 01:29:00;;;;;;;1.25;0.80;;;23.30;47.60;;;;;;5068240;28;20097;-11
2022/09/14 01:31:55;;;;;;;0.82;0.63;;;23.30;47.60;;;;;;5050696;28;20044;-10
2022/09/14 01:34:44;;;;;;;0.63;0.60;;;23.30;47.70;;;;;;5050861;28;20060;-10
2022/09/14 01:37:23;;;;;;;0.77;0.77;;;23.20;47.60;;;;;;5050408;28;20057;-10
2022/09/14 01:39:54;;;;;;;2.08;1.20;;;23.30;47.60;;;;;;5050867;28;20084;-10
2022/09/14 01:42:24;;;;;;;0.82;0.80;;;23.30;47.50;;;;;;5050290;28;20093;-10
2022/09/14 01:44:54;;;;;;;1.05;0.88;;;23.30;47.50;;;;;;5050586;28;20059;-10
2022/09/14 01:47:26;;;;;;;0.95;0.85;;;23.30;47.50;;;;;;5050087;28;20082;-10
2022/09/14 01:49:58;;;;;;;1.10;0.80;;;23.30;47.50;;;;;;5050483;28;20479;-10
2022/09/14 01:52:29;;;;;;;0.60;0.60;;;23.30;47.40;;;;;;5050828;28;20053;-10
2022/09/14 01:55:01;;;;;;;;;;;23.30;47.50;;;;;;5050816;28;20139;-10
2022/09/14 01:57:35;;;;;;;0.98;0.68;;;23.30;47.50;;;;;;5050036;28;19916;-10
2022/09/14 02:00:15;;;;;;;0.65;0.65;;;23.30;47.50;;;;;;5050406;28;20475;-10
2022/09/14 02:02:55;;;;;;;0.52;0.52;;;23.30;47.50;;;;;;5050059;28;20074;-10
2022/09/14 02:05:48;;;;;;;0.93;0.80;;;23.30;47.50;;;;;;5050629;28;20074;-10
2022/09/14 02:08:14;;;;;;;0.80;0.70;;;23.30;47.50;;;;;;5053285;28;20081;-10
2022/09/14 02:10:40;;;;;;;0.70;0.70;;;23.30;47.50;;;;;;5050289;28;20089;-10
2022/09/14 02:13:07;;;;;;;1.13;0.80;;;23.30;47.60;;;;;;5050077;28;20052;-10
2022/09/14 02:15:34;;;;;;;0.93;0.75;;;23.30;47.60;;;;;;5050256;28;20049;-10
2022/09/14 02:18:00;;;;;;;0.70;0.70;;;23.30;47.60;;;;;;5050030;28;20052;-10
2022/09/14 02:20:34;;;;;;;1.40;0.98;;;23.30;47.60;;;;;;5050269;28;20053;-10
2022/09/14 02:22:59;;;;;;;0.73;0.60;;;23.30;48.20;;;;;;5050143;28;20055;-10
2022/09/14 02:25:26;;;;;;;0.93;0.60;;;23.30;47.60;;;;;;5050126;28;20049;-10
2022/09/14 02:27:52;;;;;;;0.77;0.77;;;23.30;47.60;;;;;;5049914;28;20053;-10
2022/09/14 02:30:19;;;;;;;1.88;0.80;;;23.30;47.60;;;;;;5049957;28;20131;-10
2022/09/14 02:33:07;;;;;;;1.63;0.95;;;23.30;47.50;;;;;;5049900;28;20049;-11
2022/09/14 02:35:51;;;;;;;0.60;0.60;;;23.30;47.50;;;;;;5049950;28;20053;-10
2022/09/14 02:38:36;;;;;;;0.82;0.80;;;23.30;47.50;;;;;;5049668;28;20053;-10
2022/09/14 02:41:17;;;;;;;0.63;0.63;;;23.30;47.50;;;;;;5048835;28;20049;-10
2022/09/14 02:43:54;;;;;;;0.82;0.75;;;23.30;47.50;;;;;;5050289;28;20102;-10
2022/09/14 02:46:38;;;;;;;0.85;0.85;;;23.30;47.60;;;;;;5049732;28;20044;-10
2022/09/14 02:49:17;;;;;;;1.05;0.70;;;23.30;47.60;;;;;;5049692;28;20135;-10
2022/09/14 02:52:10;;;;;;;0.95;0.70;;;23.20;47.50;;;;;;5049639;28;20049;-10
2022/09/14 02:54:45;;;;;;;0.98;0.70;;;23.30;47.50;;;;;;5049701;28;20486;-10
2022/09/14 02:57:11;;;;;;;0.70;0.70;;;23.30;47.50;;;;;;5049784;28;20478;-11
2022/09/14 02:59:37;;;;;;;1.20;0.95;;;23.30;47.50;;;;;;5050075;28;20056;-10
2022/09/14 03:02:02;;;;;;;1.55;0.68;;;23.30;47.50;;;;;;5049612;28;20048;-11
2022/09/14 03:04:28;;;;;;;0.70;0.70;;;23.30;48.00;;;;;;5049609;28;20410;-10
2022/09/14 03:06:53;;;;;;;1.20;0.80;;;23.20;47.50;;;;;;5049859;28;20501;-11
2022/09/14 03:09:19;;;;;;;0.80;0.80;;;23.20;47.50;;;;;;5049480;28;20049;-10
2022/09/14 03:11:45;;;;;;;0.65;0.65;;;23.20;47.50;;;;;;5049466;28;20065;-10
2022/09/14 03:14:11;;;;;;;1.08;0.60;;;23.30;47.60;;;;;;5049955;28;20045;-10
2022/09/14 03:16:38;;;;;;;1.08;0.70;;;23.30;47.50;;;;;;5049497;28;20057;-11
2022/09/14 03:19:04;;;;;;;1.63;0.82;;;23.30;47.60;;;;;;5048993;28;20057;-10
2022/09/14 03:21:31;;;;;;;1.15;0.80;;;23.30;47.50;;;;;;5049728;28;20049;-10
2022/09/14 03:23:57;;;;;;;0.70;0.60;;;23.20;47.50;;;;;;5049221;28;20041;-10
2022/09/14 03:26:25;;;;;;;1.17;0.70;;;23.20;47.50;;;;;;5049588;28;20053;-10
2022/09/14 03:28:56;;;;;;;0.63;0.63;;;23.20;47.50;;;;;;5049154;28;20513;-10
2022/09/14 03:31:22;;;;;;;1.13;0.70;;;23.20;47.60;;;;;;5049232;28;20110;-10
2022/09/14 03:33:53;;;;;;;1.35;0.77;;;23.20;47.50;;;;;;5049492;28;20072;-10
2022/09/14 03:36:19;;;;;;;0.70;0.70;;;23.20;47.50;;;;;;5049014;28;20048;-10
2022/09/14 03:38:50;;;;;;;0.73;0.70;;;23.30;47.50;;;;;;5048942;28;20063;-10
2022/09/14 03:41:17;;;;;;;1.20;0.85;;;23.30;47.50;;;;;;5049188;28;20090;-10
2022/09/14 03:43:43;;;;;;;1.75;1.02;;;23.20;47.50;;;;;;5049386;28;20049;-10
2022/09/14 03:46:11;;;;;;;1.10;0.73;;;23.20;47.50;;;;;;5049218;28;20053;-10
2022/09/14 03:48:37;;;;;;;0.65;0.60;;;23.20;47.50;;;;;;5048711;28;20490;-10
2022/09/14 03:51:04;;;;;;;1.08;0.80;;;23.20;47.60;;;;;;5049755;28;20045;-10
2022/09/14 03:53:30;;;;;;;0.70;0.70;;;23.20;47.60;;;;;;5051853;28;20515;-10
2022/09/14 03:55:55;;;;;;;0.60;0.60;;;23.20;47.60;;;;;;5051981;28;20136;-10
2022/09/14 03:58:21;;;;;;;0.93;0.63;;;23.20;47.50;;;;;;5051944;28;20057;-10
2022/09/14 04:00:47;;;;;;;1.05;0.80;;;23.20;47.50;;;;;;5051628;28;20048;-10
2022/09/14 04:03:13;;;;;;;0.90;0.60;;;23.20;47.50;;;;;;5052089;28;20060;-10
2022/09/14 04:05:38;;;;;;;0.75;0.70;;;23.20;47.50;;;;;;5051920;28;20388;-11
2022/09/14 04:08:04;;;;;;;0.82;0.80;;;23.20;47.50;;;;;;5051747;28;20086;-10
2022/09/14 04:10:29;;;;;;;1.58;0.85;;;23.20;47.50;;;;;;5052285;28;20493;-10
2022/09/14 04:12:56;;;;;;;0.80;0.60;;;23.20;47.50;;;;;;5052130;28;20049;-10
2022/09/14 04:15:25;;;;;;;1.65;0.90;;;23.20;47.50;;;;;;5051921;28;20489;-10
2022/09/14 04:17:51;;;;;;;0.85;0.70;;;23.20;47.60;;;;;;5051423;28;20518;-10
2022/09/14 04:20:19;;;;;;;0.55;0.55;;;23.20;47.60;;;;;;5051467;28;20076;-10
2022/09/14 04:22:44;;;;;;;0.93;0.70;;;23.20;47.50;;;;;;5051746;28;20052;-10
2022/09/14 04:25:11;;;;;;;1.02;0.80;;;23.20;48.10;;;;;;5051934;28;20594;-10
2022/09/14 04:27:36;;;;;;;0.80;0.65;;;23.20;47.60;;;;;;5051252;28;20486;-10
2022/09/14 04:30:04;;;;;;;0.50;0.50;;;23.20;47.60;;;;;;5051721;28;20056;-10
2022/09/14 04:32:30;;;;;;;1.05;0.95;;;23.20;47.60;;;;;;5051463;28;20108;-10
2022/09/14 04:34:56;;;;;;;0.90;0.70;;;23.20;47.60;;;;;;5051393;28;20513;-10
2022/09/14 04:37:22;;;;;;;0.80;0.70;;;23.20;47.60;;;;;;5050914;28;20057;-10
2022/09/14 04:39:47;;;;;;;0.90;0.68;;;23.20;47.70;;;;;;5051699;28;20052;-10
2022/09/14 04:42:13;;;;;;;0.70;0.65;;;23.20;47.60;;;;;;5051561;28;20059;-10
2022/09/14 04:44:39;;;;;;;0.82;0.70;;;23.20;47.60;;;;;;5051248;28;20068;-10
2022/09/14 04:47:04;;;;;;;1.05;0.63;;;23.20;47.70;;;;;;5051640;28;20068;-10
2022/09/14 04:49:30;;;;;;;0.77;0.63;;;23.20;47.60;;;;;;5051673;28;20052;-10
2022/09/14 04:51:55;;;;;;;0.98;0.68;;;23.20;47.60;;;;;;5051487;28;20188;-10
2022/09/14 04:54:21;;;;;;;0.93;0.80;;;23.20;47.60;;;;;;5051685;28;20418;-10
2022/09/14 04:56:47;;;;;;;2.00;0.95;;;23.20;47.60;;;;;;5051213;28;20140;-10
2022/09/14 04:59:14;;;;;;;1.10;0.77;;;23.10;47.50;;;;;;5051103;28;20057;-10
2022/09/14 05:01:42;;;;;;;0.75;0.75;;;23.20;47.60;;;;;;5051232;28;20558;-10
2022/09/14 05:04:09;;;;;;;1.35;0.82;;;23.20;47.60;;;;;;5050615;28;20049;-10
2022/09/14 05:06:37;;;;;;;0.65;0.60;;;23.20;47.60;;;;;;5051240;28;20102;-11
2022/09/14 05:09:05;;;;;;;1.30;0.70;;;23.20;47.60;;;;;;5050973;28;20052;-10
2022/09/14 05:11:33;;;;;;;0.70;0.70;;;23.20;47.60;;;;;;5050897;28;20045;-10
2022/09/14 05:13:59;;;;;;;0.65;0.60;;;23.20;47.60;;;;;;5050921;28;20049;-10
2022/09/14 05:16:27;;;;;;;0.82;0.80;;;23.10;47.60;;;;;;5051012;28;20057;-11
2022/09/14 05:18:55;;;;;;;0.50;0.50;;;23.10;47.70;;;;;;5050970;28;20061;-10
2022/09/14 05:21:22;;;;;;;0.70;0.60;;;23.20;47.60;;;;;;5050777;28;20052;-11
2022/09/14 05:23:53;;;;;;;1.58;1.00;;;23.20;47.70;;;;;;5050721;28;20064;-10
2022/09/14 05:26:19;;;;;;;0.70;0.60;;;23.10;47.60;;;;;;5051029;28;20143;-10
2022/09/14 05:28:49;;;;;;;0.50;0.50;;;23.20;47.70;;;;;;5050437;28;20182;-10
2022/09/14 05:31:15;;;;;;;0.60;0.60;;;23.10;47.60;;;;;;5050731;28;20189;-10
2022/09/14 05:33:41;;;;;;;0.60;0.60;;;23.10;47.70;;;;;;5051222;28;20057;-10
2022/09/14 05:36:08;;;;;;;1.10;0.57;;;23.20;47.70;;;;;;5032882;28;20505;-10
2022/09/14 05:38:35;;;;;;;0.73;0.70;;;23.20;47.60;;;;;;5050395;28;20105;-10
2022/09/14 05:41:02;;;;;;;0.60;0.60;;;23.20;47.70;;;;;;5050536;28;20056;-10
2022/09/14 05:43:28;;;;;;;1.10;0.70;;;23.20;47.60;;;;;;5051002;28;20506;-10
2022/09/14 05:45:54;;;;;;;0.60;0.60;;;23.20;47.60;;;;;;5031329;28;20406;-10
2022/09/14 05:48:20;;;;;;;1.48;0.57;;;23.20;47.60;;;;;;5050338;28;20102;-11
2022/09/14 05:50:46;;;;;;;1.40;0.80;;;23.20;47.60;;;;;;5050452;28;20061;-10
2022/09/14 05:53:11;;;;;;;0.77;0.77;;;23.10;47.60;;;;;;5050392;28;20049;-10
2022/09/14 05:55:37;;;;;;;0.60;0.60;;;23.20;47.60;;;;;;5050598;28;20074;-11
2022/09/14 05:58:03;;;;;;;0.80;0.70;;;23.20;47.60;;;;;;5050445;28;20127;-11
2022/09/14 06:00:30;;;;;;;0.80;0.80;;;23.20;47.60;;;;;;5050943;28;20554;-10
2022/09/14 06:02:55;;;;;;;0.68;0.68;;;23.10;47.60;;;;;;5050818;28;20049;-10
2022/09/14 06:05:24;;;;;;;0.95;0.77;;;23.20;47.60;;;;;;5048896;28;20140;-10
2022/09/14 06:07:51;;;;;;;0.68;0.68;;;23.20;47.60;;;;;;5050515;28;20064;-10
2022/09/14 06:10:19;;;;;;;0.60;0.60;;;23.10;47.60;;;;;;5050182;28;20045;-10
2022/09/14 06:12:45;;;;;;;0.88;0.80;;;23.20;47.50;;;;;;5049941;28;20064;-10
2022/09/14 06:15:11;;;;;;;0.80;0.80;;;23.20;47.60;;;;;;5049108;28;20053;-10
2022/09/14 06:17:37;;;;;;;0.80;0.60;;;23.20;47.60;;;;;;5049676;28;20053;-10
2022/09/14 06:20:06;;;;;;;0.60;0.60;;;23.20;47.50;;;;;;5049815;28;20131;-10
2022/09/14 06:22:32;;;;;;;0.60;0.60;;;23.20;47.50;;;;;;5049616;28;20053;-10
2022/09/14 06:24:58;;;;;;;0.60;0.60;;;23.20;47.50;;;;;;5050169;28;20143;-10
2022/09/14 06:27:24;;;;;;;0.80;0.70;;;23.20;47.50;;;;;;5049847;28;20045;-10
2022/09/14 06:29:52;;;;;;;1.10;0.82;;;23.20;47.50;;;;;;5049780;28;20084;-10
2022/09/14 06:32:18;;;;;;;0.82;0.70;;;23.20;47.50;;;;;;5050202;28;20049;-10
2022/09/14 06:34:44;;;;;;;0.57;0.50;;;23.20;47.50;;;;;;5050206;28;20128;-10
2022/09/14 06:37:10;;;;;;;0.90;0.60;;;23.20;47.50;;;;;;5049751;28;20057;-10
2022/09/14 06:39:36;;;;;;;0.85;0.60;;;23.20;47.40;;;;;;5049747;28;20053;-10
2022/09/14 06:42:01;;;;;;;0.77;0.77;;;23.20;47.40;;;;;;5049837;28;20049;-10
2022/09/14 06:44:27;;;;;;;0.82;0.60;;;23.20;47.30;;;;;;5032438;28;20048;-10
2022/09/14 06:46:53;;;;;;;0.60;0.60;;;23.30;47.40;;;;;;5050088;28;20140;-10
2022/09/14 06:49:21;;;;;;;0.75;0.70;;;23.30;47.40;;;;;;5050017;28;20435;-11
2022/09/14 06:51:49;;;;;;;1.13;0.80;;;23.30;47.30;;;;;;5049576;28;20508;-10
2022/09/14 06:54:16;;;;;;;1.95;0.88;;;23.30;47.40;;;;;;5049572;28;20136;-11
2022/09/14 06:56:43;;;;;;;0.75;0.63;;;23.30;47.30;;;;;;5049631;28;20045;-10
2022/09/14 06:59:11;;;;;;;1.48;0.70;;;23.30;47.30;;;;;;5049487;28;20135;-10
2022/09/14 07:01:37;;;;;;;0.60;0.60;;;23.30;47.30;;;;;;5049085;28;20045;-11
2022/09/14 07:04:04;;;;;;;0.60;0.60;;;23.30;47.30;;;;;;5049216;28;20056;-11
2022/09/14 07:06:32;;;;;;;0.70;0.70;;;23.30;47.20;;;;;;5049124;28;20049;-12
2022/09/14 07:08:58;;;;;;;0.73;0.60;;;23.40;47.20;;;;;;5049237;28;20105;-11
2022/09/14 07:11:25;;;;;;;1.50;0.85;;;23.40;47.20;;;;;;5049108;28;20494;-11
2022/09/14 07:13:59;;;;;;;0.77;0.77;;;23.40;47.10;;;;;;5049038;28;20060;-11
2022/09/14 07:16:26;;;;;;;0.82;0.63;;;23.40;47.10;;;;;;5048840;28;20185;-11
2022/09/14 07:18:56;;;;;;;1.27;0.60;;;23.40;47.20;;;;;;5048813;28;20060;-11
2022/09/14 07:21:25;;;;;;;1.25;0.80;;;23.40;47.10;;;;;;5049038;28;20044;-11
2022/09/14 07:23:51;;;;;;;1.25;1.05;;;23.40;47.10;;;;;;5049020;28;20060;-11
2022/09/14 07:26:24;;;;;;;1.13;0.70;;;23.50;47.00;;;;;;5050196;28;20410;-11
2022/09/14 07:28:53;;;;;;;1.05;0.90;;;23.60;46.90;;;;;;5052379;28;20053;-11
2022/09/14 07:31:25;;;;;;;0.70;0.70;;;23.60;46.80;;;;;;5052089;28;20135;-11
2022/09/14 07:33:53;;;;;;;0.77;0.73;;;23.80;46.50;;;;;;5052403;28;20064;-11
2022/09/14 07:36:20;;;;;;;1.05;0.77;;;23.80;46.40;;;;;;5051979;28;20594;-11
2022/09/14 07:38:46;;;;;;;0.82;0.77;;;23.90;46.20;;;;;;5052027;28;20057;-11
2022/09/14 07:41:11;;;;;;;0.63;0.63;;;23.90;46.10;;;;;;5051943;28;20131;-11
2022/09/14 07:43:37;;;;;;;1.17;0.90;;;24.00;46.00;;;;;;5052051;28;20141;-11
2022/09/14 07:46:04;;;;;;;1.05;0.70;;;24.10;45.80;;;;;;5052012;28;20077;-11
2022/09/14 07:48:31;;;;;;;1.42;0.80;;;24.20;45.60;;;;;;5051714;28;20447;-11
2022/09/14 07:51:02;;;;;;;0.98;0.80;;;24.40;45.40;;;;;;5051794;28;20053;-11
2022/09/14 07:53:28;;;;;;;0.80;0.80;;;24.50;45.20;;;;;;5051975;28;20057;-10
2022/09/14 07:55:57;;;;;;;1.00;0.77;;;24.50;45.00;;;;;;5051685;28;20091;-10
2022/09/14 07:58:23;;;;;;;1.08;0.77;;;24.60;45.00;;;;;;5051985;28;20423;-10
2022/09/14 08:00:48;;;;;;;0.90;0.90;;;24.60;44.90;;;;;;5051723;28;20057;-10
2022/09/14 08:03:14;;;;;;;1.15;0.90;;;24.60;44.80;;;;;;5051645;28;20053;-10
2022/09/14 08:05:39;;;;;;;1.90;0.90;;;24.70;44.70;;;;;;5051753;28;20061;-10
2022/09/14 08:08:05;;;;;;;2.13;1.00;;;24.70;44.80;;;;;;5051927;28;20405;-10
2022/09/14 08:10:34;;;;;;;1.35;0.93;;;24.60;44.90;;;;;;5051992;28;20490;-10
2022/09/14 08:12:59;;;;;;;1.10;0.88;;;24.50;44.90;;;;;;5051603;28;20056;-10
2022/09/14 08:15:27;;;;;;;1.58;1.08;;;24.60;44.90;;;;;;5051642;28;20049;-10
2022/09/14 08:17:52;;;;;;;1.25;0.93;;;24.60;44.90;;;;;;5051448;28;20050;-10
2022/09/14 08:20:19;;;;;;;1.17;0.85;;;24.70;44.90;;;;;;5051428;28;20049;-10
2022/09/14 08:22:45;;;;;;;2.33;0.95;;;24.70;44.80;;;;;;5051432;28;20053;-10
2022/09/14 08:25:11;;;;;;;1.08;0.80;;;24.60;44.70;;;;;;5051746;28;20063;-10
2022/09/14 08:27:37;;;;;;;1.70;0.88;;;24.60;44.90;;;;;;5051278;28;20557;-10
2022/09/14 08:30:03;;;;;;;3.05;1.00;;;24.50;45.00;;;;;;5051139;28;20061;-10
2022/09/14 08:32:29;;;;;;;1.20;0.80;;;24.50;45.20;;;;;;5051087;28;20053;-19
2022/09/14 08:34:54;;;;;;;1.70;1.08;;;24.50;45.20;;;;;;5051465;28;20068;-11
2022/09/14 08:37:20;;;;;;;3.25;1.55;;;24.40;45.20;;;;;;5050418;28;20057;-10
2022/09/14 08:39:46;;;;;;;2.75;1.27;;;24.40;45.20;;;;;;5051338;28;20049;-10
2022/09/14 08:42:17;;;;;;;1.48;1.20;;;24.50;45.30;;;;;;5051193;28;20088;-10
2022/09/14 08:44:51;;;;;;;1.67;1.20;;;24.50;45.20;;;;;;5051502;28;20059;-10
2022/09/14 08:47:22;;;;;;;1.45;1.00;;;24.40;45.20;;;;;;5051191;28;20048;-10
2022/09/14 08:49:50;;;;;;;1.25;0.93;;;24.50;45.30;;;;;;5051464;28;20057;-10
2022/09/14 08:52:25;;;;;;;1.80;1.15;;;24.50;45.30;;;;;;5051172;28;20049;-10
2022/09/14 08:55:10;;;;;;;1.20;1.00;;;24.40;45.20;;;;;;5051385;28;20048;-10
2022/09/14 08:57:46;;;;;;;2.15;1.02;;;24.50;45.30;;;;;;5050667;28;20057;-10
2022/09/14 09:00:19;;;;;;;2.25;0.98;;;24.50;45.30;;;;;;5051041;28;20108;-10
2022/09/14 09:03:18;;;;;;;2.50;1.30;;;24.50;45.30;;;;;;5050942;28;20058;-10
2022/09/14 09:05:53;;;;;;;2.05;1.17;;;24.50;45.20;;;;;;5050604;28;20045;-11
2022/09/14 09:08:38;;;;;;;1.05;0.82;;;24.50;45.30;;;;;;5050859;28;20560;-10
2022/09/14 09:11:06;;;;;;;2.70;1.10;;;24.50;45.30;;;;;;5050793;28;20056;-10
2022/09/14 09:13:34;;;;;;;1.45;1.20;;;24.50;45.30;;;;;;5050344;28;20084;-10
2022/09/14 09:16:04;;;;;;;1.77;1.10;;;24.40;45.30;;;;;;5050448;28;20059;-11
2022/09/14 09:18:38;;;;;;;3.05;1.33;;;24.40;45.30;;;;;;5050704;28;20053;-10
2022/09/14 09:21:10;;;;;;;2.13;0.90;;;24.50;45.40;;;;;;5050259;28;20060;-10
2022/09/14 09:23:36;;;;;;;2.40;1.00;;;24.40;45.40;;;;;;5050773;28;20060;-10
2022/09/14 09:26:27;;;;;;;1.27;0.88;;;24.40;45.40;;;;;;5050639;28;20064;-10
2022/09/14 09:29:01;;;;;;;1.35;1.05;;;24.30;45.40;;;;;;5050982;28;20402;-11
2022/09/14 09:31:33;;;;;;;2.05;1.35;;;24.30;45.50;;;;;;5050549;28;20113;-10
2022/09/14 09:34:29;;;;;;;2.85;1.27;;;24.30;45.60;;;;;;5032808;28;20045;-10
2022/09/14 09:37:17;;;;;;;1.52;0.98;;;24.30;45.60;;;;;;5048949;28;20110;-10
2022/09/14 09:39:43;;;;;;;2.70;1.63;;;24.20;45.70;;;;;;5050375;28;20049;-10
2022/09/14 09:42:23;;;;;;;2.25;0.98;;;24.20;45.80;;;;;;5050287;28;20451;-10
2022/09/14 09:45:01;;;;;;;1.92;1.33;;;24.20;45.70;;;;;;5050306;28;20041;-10
2022/09/14 09:47:40;;;;;;;2.85;1.17;;;24.20;45.70;;;;;;5050660;28;20071;-10
2022/09/14 09:50:12;;;;;;;2.30;1.30;;;24.20;45.70;;;;;;5050106;28;20052;-10
2022/09/14 09:52:54;;;;;;;1.75;1.10;;;24.20;45.70;;;;;;5050014;28;20102;-10
2022/09/14 09:55:28;;;;;;;1.85;1.20;;;24.20;45.70;;;;;;5050082;28;20052;-10
2022/09/14 09:57:54;;;;;;;3.25;1.25;;;24.20;45.70;;;;;;5050160;28;20061;-10
2022/09/14 10:00:25;;;;;;;1.73;0.80;;;24.20;45.70;;;;;;5050283;28;20078;-10
2022/09/14 10:02:53;;;;;;;2.13;1.05;;;24.20;45.80;;;;;;5050621;28;20067;-10
2022/09/14 10:05:21;;;;;;;1.92;1.13;;;24.20;45.70;;;;;;5050189;28;20049;-10
2022/09/14 10:08:04;;;;;;;3.13;1.13;;;24.20;45.70;;;;;;5050678;28;20179;-10
2022/09/14 10:10:33;;;;;;;5.10;1.55;;;24.20;45.80;;;;;;5050171;28;20053;-10
2022/09/14 10:12:59;;;;;;;2.85;1.10;;;24.20;45.80;;;;;;5050302;28;20045;-10
2022/09/14 10:15:28;;;;;;;2.15;1.08;;;24.30;45.80;;;;;;5050019;28;20117;-10
2022/09/14 10:18:12;;;;;;;2.10;1.05;;;24.20;45.70;;;;;;5050269;28;20056;-10
2022/09/14 10:20:41;;;;;;;3.42;1.70;;;24.20;45.70;;;;;;5049968;28;20074;-10
2022/09/14 10:23:18;;;;;;;2.55;1.23;;;24.20;45.70;;;;;;5049987;28;20143;-10
2022/09/14 10:25:44;;;;;;;2.80;1.10;;;24.20;45.80;;;;;;5050116;28;20049;-11
2022/09/14 10:28:32;;;;;;;2.50;1.38;;;24.20;45.90;;;;;;5049935;28;20068;-10
2022/09/14 10:31:10;;;;;;;2.95;1.20;;;24.10;45.90;;;;;;5050013;28;20126;-10
2022/09/14 10:33:36;;;;;;;1.92;1.08;;;24.10;46.00;;;;;;5049897;28;20049;-10
2022/09/14 10:36:20;;;;;;;2.13;1.27;;;24.10;45.90;;;;;;5050122;28;20053;-10
2022/09/14 10:38:51;;;;;;;2.20;1.10;;;24.10;45.90;;;;;;5049699;28;20111;-10
2022/09/14 10:41:37;;;;;;;1.48;1.08;;;24.10;46.00;;;;;;5049796;28;20052;-10
2022/09/14 10:44:42;;;;;;;3.25;1.10;;;24.10;46.00;;;;;;5049804;28;20048;-10
2022/09/14 10:47:30;;;;;;;3.97;1.23;;;24.10;46.00;;;;;;5057583;28;20057;-11
2022/09/14 10:50:12;;;;;;;1.20;0.95;;;24.00;46.00;;;;;;5049423;28;20477;-10
2022/09/14 10:53:35;;;;;;;2.13;1.05;;;24.10;46.10;;;;;;5048910;28;20533;-13
2022/09/14 10:56:11;;;;;;;2.65;1.10;;;24.10;46.20;;;;;;5069308;28;20048;-10
2022/09/14 10:58:55;;;;;;;2.70;1.38;;;24.00;46.10;;;;;;5047359;28;20470;-10
2022/09/14 11:01:41;;;;;;;2.58;1.13;;;24.00;46.20;;;;;;5048816;28;20498;-10
2022/09/14 11:04:44;;;;;;;2.72;1.35;;;24.00;46.20;;;;;;5049512;28;20053;-10
2022/09/14 11:07:32;;;;;;;2.40;1.10;;;24.00;46.20;;;;;;5049182;28;20561;-10
2022/09/14 11:10:40;;;;;;;2.53;1.30;;;24.00;46.10;;;;;;5049199;28;20045;-10
2022/09/14 11:13:16;;;;;;;2.20;1.27;;;24.10;46.10;;;;;;5049671;28;20085;-10
2022/09/14 11:16:14;;;;;;;2.63;1.33;;;24.10;46.00;;;;;;5049214;28;20089;-10
2022/09/14 11:18:52;;;;;;;1.38;1.27;;;24.10;45.90;;;;;;5049483;28;20117;-10
2022/09/14 11:21:42;;;;;;;1.88;1.30;;;24.20;45.90;;;;;;5049131;28;20368;-10
2022/09/14 11:24:28;;;;;;;2.45;1.08;;;24.20;45.80;;;;;;5048150;28;20053;-11
2022/09/14 11:27:20;;;;;;;3.05;1.70;;;24.20;45.90;;;;;;5047737;28;20458;-11
2022/09/14 11:29:54;;;;;;;1.75;1.38;;;24.20;45.70;;;;;;5047886;28;20553;-10
2022/09/14 11:33:03;;;;;;;1.58;1.10;;;24.30;45.70;;;;;;5048978;28;20057;-10
2022/09/14 11:35:44;;;;;;;3.13;1.40;;;24.20;45.70;;;;;;5057425;28;20049;-11
2022/09/14 11:38:20;;;;;;;2.28;1.20;;;24.20;45.70;;;;;;5046390;28;20049;-11
2022/09/14 11:40:57;;;;;;;2.13;1.20;;;24.20;45.70;;;;;;5046628;28;20067;-12
2022/09/14 11:43:34;;;;;;;2.40;1.30;;;24.20;45.70;;;;;;5047544;28;20121;-11
2022/09/14 11:46:08;;;;;;;2.88;1.00;;;24.20;45.80;;;;;;5048375;28;20053;-10
2022/09/14 11:48:55;;;;;;;2.22;1.10;;;24.10;45.80;;;;;;5048928;28;20521;-10
2022/09/14 11:51:27;;;;;;;2.08;1.10;;;24.10;45.90;;;;;;5048744;28;20110;-10
2022/09/14 11:53:53;;;;;;;2.78;1.15;;;24.10;45.90;;;;;;5048998;28;20057;-10
2022/09/14 11:56:25;;;;;;;4.70;1.25;;;24.10;45.90;;;;;;5048683;28;20053;-10
2022/09/14 11:58:53;;;;;;;2.90;1.20;;;24.10;45.90;;;;;;5048555;28;20049;-10
2022/09/14 12:01:27;;;;;;;4.70;1.10;;;24.10;45.90;;;;;;5048764;28;20394;-10
2022/09/14 12:04:04;;;;;;;2.35;1.35;;;24.10;46.00;;;;;;5048772;28;20609;-10
2022/09/14 12:06:29;;;;;;;3.30;1.38;;;24.00;46.10;;;;;;5048794;28;20094;-10
2022/09/14 12:09:19;;;;;;;2.53;1.10;;;23.90;46.10;;;;;;5048583;28;20045;-10
2022/09/14 12:11:53;;;;;;;2.15;0.90;;;23.90;46.30;;;;;;5049274;28;20102;-10
2022/09/14 12:14:31;;;;;;;1.77;1.10;;;23.90;46.20;;;;;;5051550;28;20048;-10
2022/09/14 12:17:13;;;;;;;2.38;1.25;;;23.90;46.30;;;;;;5050266;28;20063;-10
2022/09/14 12:19:40;;;;;;;2.10;0.90;;;23.90;46.30;;;;;;5051978;28;20099;-10
2022/09/14 12:22:24;;;;;;;3.50;1.17;;;23.90;46.30;;;;;;5051965;28;20478;-10
2022/09/14 12:25:19;;;;;;;1.50;1.10;;;23.90;46.30;;;;;;5052144;28;20068;-10
2022/09/14 12:27:47;;;;;;;3.28;1.48;;;23.90;46.30;;;;;;5051588;28;20101;-10
2022/09/14 12:30:38;;;;;;;1.90;1.20;;;23.90;46.30;;;;;;5052074;28;20053;-10
2022/09/14 12:33:32;;;;;;;1.52;1.20;;;23.90;46.30;;;;;;5051840;28;20048;-10
2022/09/14 12:36:05;;;;;;;2.65;1.17;;;23.90;46.30;;;;;;5051196;28;20072;-10
2022/09/14 12:38:37;;;;;;;1.92;1.00;;;23.90;46.30;;;;;;5051388;28;20139;-10
2022/09/14 12:41:08;;;;;;;3.40;1.55;;;23.90;46.20;;;;;;5051315;28;20080;-11
2022/09/14 12:43:34;;;;;;;1.50;1.00;;;24.00;46.10;;;;;;5051401;28;20049;-11
2022/09/14 12:46:10;;;;;;;3.80;1.10;;;24.00;46.10;;;;;;5049766;28;20174;-9
2022/09/14 12:48:47;;;;;;;1.40;1.00;;;24.00;46.00;;;;;;5051790;28;20135;-9
2022/09/14 12:51:27;;;;;;;1.95;1.17;;;24.10;46.00;;;;;;5051556;28;20057;-9
2022/09/14 12:54:08;;;;;;;1.52;1.13;;;24.10;45.90;;;;;;5051164;28;20131;-9
2022/09/14 12:56:41;;;;;;;2.70;1.65;;;24.00;46.00;;;;;;5051360;28;20068;-11
2022/09/14 12:59:07;;;;;;;2.78;1.08;;;24.00;46.00;;;;;;5051564;28;20139;-10
2022/09/14 13:01:57;;;;;;;2.85;1.40;;;24.00;46.10;;;;;;5051284;28;20473;-10
2022/09/14 13:04:35;;;;;;;2.80;1.23;;;24.00;46.10;;;;;;5051021;28;20102;-10
2022/09/14 13:07:04;;;;;;;1.98;1.08;;;24.00;46.20;;;;;;5050871;28;20172;-10
2022/09/14 13:09:32;;;;;;;2.17;1.08;;;24.00;46.10;;;;;;5032999;28;20387;-11
2022/09/14 13:12:01;;;;;;;2.60;1.70;;;24.00;46.10;;;;;;5050978;28;20048;-10
2022/09/14 13:14:31;;;;;;;1.63;1.13;;;24.00;46.10;;;;;;5051117;28;20061;-11